Saravena, Saravena Los Colonizadores Airport (SKSA)

NameSaravena Los Colonizadores Airport
CitySaravena
CountryColombia
ICAOSKSA
IATARVE
Altitude-0 m
CoordinatesGoogle Map
Live Air TrafficLiveATC.net
METARSKSA 141800Z 05004KT 9999 SCT020 SCT040 32/23 A2987 RMK VCSH W
2019-09-14 18:00:00 Wind: Northeast (50°) 2.06 m/s - Visibility: > 10000 m - Temperature: 32 °C - Dew point: 23 °C - Humidity: 59% - Pressure: 1011.51 hPa

Sorry, no flights used the airport in this database.